sensor_id;sensor_type;location;lat;lon;timestamp;P1;durP1;ratioP1;P2;durP2;ratioP2
7336;SDS011;54510;42.016;23.098;2023-07-16T00:02:08;12.77;;;11.25;;
7336;SDS011;54510;42.016;23.098;2023-07-16T00:04:34;21.75;;;11.75;;
7336;SDS011;54510;42.016;23.098;2023-07-16T00:07:00;20.90;;;11.38;;
7336;SDS011;54510;42.016;23.098;2023-07-16T00:09:26;16.85;;;11.30;;
7336;SDS011;54510;42.016;23.098;2023-07-16T00:11:51;15.25;;;11.07;;
7336;SDS011;54510;42.016;23.098;2023-07-16T00:14:17;15.00;;;11.05;;
7336;SDS011;54510;42.016;23.098;2023-07-16T00:16:42;20.55;;;11.32;;
7336;SDS011;54510;42.016;23.098;2023-07-16T00:19:09;17.17;;;10.85;;
7336;SDS011;54510;42.016;23.098;2023-07-16T00:21:36;18.45;;;11.13;;
7336;SDS011;54510;42.016;23.098;2023-07-16T00:24:02;17.23;;;11.65;;
7336;SDS011;54510;42.016;23.098;2023-07-16T00:26:28;17.77;;;12.05;;
7336;SDS011;54510;42.016;23.098;2023-07-16T00:28:53;15.40;;;10.68;;
7336;SDS011;54510;42.016;23.098;2023-07-16T00:31:19;18.15;;;11.57;;
7336;SDS011;54510;42.016;23.098;2023-07-16T00:33:44;16.98;;;11.35;;
7336;SDS011;54510;42.016;23.098;2023-07-16T00:36:10;17.33;;;11.98;;
7336;SDS011;54510;42.016;23.098;2023-07-16T00:38:35;14.15;;;11.15;;
7336;SDS011;54510;42.016;23.098;2023-07-16T00:41:01;20.00;;;11.98;;
7336;SDS011;54510;42.016;23.098;2023-07-16T00:43:26;19.80;;;11.82;;
7336;SDS011;54510;42.016;23.098;2023-07-16T00:45:51;19.45;;;11.80;;
7336;SDS011;54510;42.016;23.098;2023-07-16T00:48:17;18.15;;;10.93;;
7336;SDS011;54510;42.016;23.098;2023-07-16T00:50:44;17.13;;;11.18;;
7336;SDS011;54510;42.016;23.098;2023-07-16T00:53:09;16.23;;;11.77;;
7336;SDS011;54510;42.016;23.098;2023-07-16T00:55:35;12.93;;;10.65;;
7336;SDS011;54510;42.016;23.098;2023-07-16T00:58:03;15.82;;;10.75;;
7336;SDS011;54510;42.016;23.098;2023-07-16T01:00:32;14.52;;;11.48;;
7336;SDS011;54510;42.016;23.098;2023-07-16T01:03:02;15.05;;;10.85;;
7336;SDS011;54510;42.016;23.098;2023-07-16T01:05:35;15.80;;;10.82;;
7336;SDS011;54510;42.016;23.098;2023-07-16T01:08:14;21.13;;;11.32;;
7336;SDS011;54510;42.016;23.098;2023-07-16T01:10:46;15.20;;;10.25;;
7336;SDS011;54510;42.016;23.098;2023-07-16T01:13:14;16.13;;;10.45;;
7336;SDS011;54510;42.016;23.098;2023-07-16T01:15:40;16.70;;;11.88;;
7336;SDS011;54510;42.016;23.098;2023-07-16T01:18:05;17.38;;;10.82;;
7336;SDS011;54510;42.016;23.098;2023-07-16T01:20:31;15.88;;;10.65;;
7336;SDS011;54510;42.016;23.098;2023-07-16T01:28:27;15.45;;;11.32;;
7336;SDS011;54510;42.016;23.098;2023-07-16T01:31:15;17.13;;;11.85;;
7336;SDS011;54510;42.016;23.098;2023-07-16T01:33:42;19.40;;;11.15;;
7336;SDS011;54510;42.016;23.098;2023-07-16T01:36:08;15.45;;;10.65;;
7336;SDS011;54510;42.016;23.098;2023-07-16T01:38:37;14.77;;;11.65;;
7336;SDS011;54510;42.016;23.098;2023-07-16T01:41:03;16.50;;;12.23;;
7336;SDS011;54510;42.016;23.098;2023-07-16T01:43:28;12.93;;;10.65;;
7336;SDS011;54510;42.016;23.098;2023-07-16T01:45:53;16.05;;;11.73;;
7336;SDS011;54510;42.016;23.098;2023-07-16T01:48:24;13.35;;;11.38;;
7336;SDS011;54510;42.016;23.098;2023-07-16T01:50:55;13.63;;;11.40;;
7336;SDS011;54510;42.016;23.098;2023-07-16T01:53:21;17.13;;;11.88;;
7336;SDS011;54510;42.016;23.098;2023-07-16T01:55:46;13.27;;;10.70;;
7336;SDS011;54510;42.016;23.098;2023-07-16T01:58:12;20.90;;;11.80;;
7336;SDS011;54510;42.016;23.098;2023-07-16T02:00:38;17.15;;;12.10;;
7336;SDS011;54510;42.016;23.098;2023-07-16T02:03:04;17.98;;;11.30;;
7336;SDS011;54510;42.016;23.098;2023-07-16T02:05:29;15.00;;;11.60;;
7336;SDS011;54510;42.016;23.098;2023-07-16T02:07:55;14.98;;;11.68;;
7336;SDS011;54510;42.016;23.098;2023-07-16T02:10:20;15.77;;;11.10;;
7336;SDS011;54510;42.016;23.098;2023-07-16T02:12:45;15.93;;;11.20;;
7336;SDS011;54510;42.016;23.098;2023-07-16T02:15:11;14.07;;;11.68;;
7336;SDS011;54510;42.016;23.098;2023-07-16T02:17:36;16.05;;;11.77;;
7336;SDS011;54510;42.016;23.098;2023-07-16T02:20:02;15.85;;;12.38;;
7336;SDS011;54510;42.016;23.098;2023-07-16T02:22:30;17.27;;;11.02;;
7336;SDS011;54510;42.016;23.098;2023-07-16T02:24:56;18.27;;;12.43;;
7336;SDS011;54510;42.016;23.098;2023-07-16T02:27:21;20.83;;;10.57;;
7336;SDS011;54510;42.016;23.098;2023-07-16T02:29:47;24.63;;;11.95;;
7336;SDS011;54510;42.016;23.098;2023-07-16T02:32:12;16.90;;;11.02;;
7336;SDS011;54510;42.016;23.098;2023-07-16T02:34:38;18.13;;;12.18;;
7336;SDS011;54510;42.016;23.098;2023-07-16T02:37:03;14.82;;;11.98;;
7336;SDS011;54510;42.016;23.098;2023-07-16T02:39:29;20.38;;;12.73;;
7336;SDS011;54510;42.016;23.098;2023-07-16T02:41:54;17.38;;;11.55;;
7336;SDS011;54510;42.016;23.098;2023-07-16T02:44:20;12.77;;;11.27;;
7336;SDS011;54510;42.016;23.098;2023-07-16T02:46:45;13.95;;;11.27;;
7336;SDS011;54510;42.016;23.098;2023-07-16T02:49:10;14.27;;;12.10;;
7336;SDS011;54510;42.016;23.098;2023-07-16T02:51:36;17.73;;;12.23;;
7336;SDS011;54510;42.016;23.098;2023-07-16T02:54:01;17.77;;;11.40;;
7336;SDS011;54510;42.016;23.098;2023-07-16T02:56:27;17.98;;;11.43;;
7336;SDS011;54510;42.016;23.098;2023-07-16T02:58:52;15.23;;;11.00;;
7336;SDS011;54510;42.016;23.098;2023-07-16T03:01:17;20.80;;;12.70;;
7336;SDS011;54510;42.016;23.098;2023-07-16T03:03:43;18.90;;;12.75;;
7336;SDS011;54510;42.016;23.098;2023-07-16T03:06:08;25.50;;;12.88;;
7336;SDS011;54510;42.016;23.098;2023-07-16T03:08:34;16.13;;;12.32;;
7336;SDS011;54510;42.016;23.098;2023-07-16T03:10:59;17.90;;;12.07;;
7336;SDS011;54510;42.016;23.098;2023-07-16T03:13:25;19.33;;;13.18;;
7336;SDS011;54510;42.016;23.098;2023-07-16T03:15:50;19.52;;;13.32;;
7336;SDS011;54510;42.016;23.098;2023-07-16T03:18:17;20.38;;;11.82;;
7336;SDS011;54510;42.016;23.098;2023-07-16T03:20:44;20.95;;;12.80;;
7336;SDS011;54510;42.016;23.098;2023-07-16T03:23:09;22.20;;;12.68;;
7336;SDS011;54510;42.016;23.098;2023-07-16T03:25:35;16.88;;;12.00;;
7336;SDS011;54510;42.016;23.098;2023-07-16T03:28:00;15.20;;;11.75;;
7336;SDS011;54510;42.016;23.098;2023-07-16T03:30:26;16.27;;;12.85;;
7336;SDS011;54510;42.016;23.098;2023-07-16T03:32:51;19.48;;;13.00;;
7336;SDS011;54510;42.016;23.098;2023-07-16T03:35:16;17.75;;;12.48;;
7336;SDS011;54510;42.016;23.098;2023-07-16T03:37:42;18.73;;;13.88;;
7336;SDS011;54510;42.016;23.098;2023-07-16T03:40:18;16.48;;;12.93;;
7336;SDS011;54510;42.016;23.098;2023-07-16T03:42:48;16.98;;;13.02;;
7336;SDS011;54510;42.016;23.098;2023-07-16T03:45:13;21.40;;;13.50;;
7336;SDS011;54510;42.016;23.098;2023-07-16T03:47:39;17.25;;;12.38;;
7336;SDS011;54510;42.016;23.098;2023-07-16T03:50:05;21.27;;;13.45;;
7336;SDS011;54510;42.016;23.098;2023-07-16T03:52:31;15.80;;;13.50;;
7336;SDS011;54510;42.016;23.098;2023-07-16T03:54:56;21.08;;;13.73;;
7336;SDS011;54510;42.016;23.098;2023-07-16T03:57:22;17.65;;;12.45;;
7336;SDS011;54510;42.016;23.098;2023-07-16T03:59:47;16.70;;;13.48;;
7336;SDS011;54510;42.016;23.098;2023-07-16T04:02:12;19.70;;;11.85;;
7336;SDS011;54510;42.016;23.098;2023-07-16T04:04:38;16.08;;;12.82;;
7336;SDS011;54510;42.016;23.098;2023-07-16T04:07:03;22.52;;;14.10;;
7336;SDS011;54510;42.016;23.098;2023-07-16T04:09:29;18.95;;;12.13;;
7336;SDS011;54510;42.016;23.098;2023-07-16T04:11:54;18.08;;;13.13;;
7336;SDS011;54510;42.016;23.098;2023-07-16T04:14:20;18.33;;;13.07;;
7336;SDS011;54510;42.016;23.098;2023-07-16T04:16:45;18.65;;;12.60;;
7336;SDS011;54510;42.016;23.098;2023-07-16T04:19:10;18.65;;;12.43;;
7336;SDS011;54510;42.016;23.098;2023-07-16T04:21:36;18.23;;;13.20;;
7336;SDS011;54510;42.016;23.098;2023-07-16T04:24:02;21.17;;;12.30;;
7336;SDS011;54510;42.016;23.098;2023-07-16T04:26:28;16.52;;;13.43;;
7336;SDS011;54510;42.016;23.098;2023-07-16T04:28:53;19.65;;;12.73;;
7336;SDS011;54510;42.016;23.098;2023-07-16T04:31:18;25.23;;;12.30;;
7336;SDS011;54510;42.016;23.098;2023-07-16T04:33:44;16.00;;;12.45;;
7336;SDS011;54510;42.016;23.098;2023-07-16T04:36:09;24.52;;;12.90;;
7336;SDS011;54510;42.016;23.098;2023-07-16T04:38:35;15.10;;;11.38;;
7336;SDS011;54510;42.016;23.098;2023-07-16T04:41:00;15.65;;;12.18;;
7336;SDS011;54510;42.016;23.098;2023-07-16T04:43:25;16.70;;;12.40;;
7336;SDS011;54510;42.016;23.098;2023-07-16T04:45:51;19.42;;;12.73;;
7336;SDS011;54510;42.016;23.098;2023-07-16T04:48:16;20.88;;;12.50;;
7336;SDS011;54510;42.016;23.098;2023-07-16T04:50:42;18.33;;;12.52;;
7336;SDS011;54510;42.016;23.098;2023-07-16T04:53:07;17.63;;;13.35;;
7336;SDS011;54510;42.016;23.098;2023-07-16T04:55:38;16.98;;;13.20;;
7336;SDS011;54510;42.016;23.098;2023-07-16T04:58:04;16.80;;;13.82;;
7336;SDS011;54510;42.016;23.098;2023-07-16T05:00:33;25.92;;;14.10;;
7336;SDS011;54510;42.016;23.098;2023-07-16T05:02:59;17.20;;;12.38;;
7336;SDS011;54510;42.016;23.098;2023-07-16T05:05:25;22.25;;;13.60;;
7336;SDS011;54510;42.016;23.098;2023-07-16T05:07:50;18.23;;;12.57;;
7336;SDS011;54510;42.016;23.098;2023-07-16T05:10:16;17.92;;;13.75;;
7336;SDS011;54510;42.016;23.098;2023-07-16T05:12:41;16.52;;;12.65;;
7336;SDS011;54510;42.016;23.098;2023-07-16T05:15:07;19.00;;;13.07;;
7336;SDS011;54510;42.016;23.098;2023-07-16T05:17:33;17.02;;;12.75;;
7336;SDS011;54510;42.016;23.098;2023-07-16T05:19:58;17.98;;;13.25;;
7336;SDS011;54510;42.016;23.098;2023-07-16T05:22:23;17.88;;;12.45;;
7336;SDS011;54510;42.016;23.098;2023-07-16T05:24:49;15.20;;;12.98;;
7336;SDS011;54510;42.016;23.098;2023-07-16T05:27:14;21.25;;;14.18;;
7336;SDS011;54510;42.016;23.098;2023-07-16T05:29:40;20.23;;;14.10;;
7336;SDS011;54510;42.016;23.098;2023-07-16T05:32:05;21.67;;;14.32;;
7336;SDS011;54510;42.016;23.098;2023-07-16T05:34:31;18.63;;;14.43;;
7336;SDS011;54510;42.016;23.098;2023-07-16T05:36:56;22.88;;;14.40;;
7336;SDS011;54510;42.016;23.098;2023-07-16T05:39:22;18.35;;;13.13;;
7336;SDS011;54510;42.016;23.098;2023-07-16T05:41:47;20.88;;;14.00;;
7336;SDS011;54510;42.016;23.098;2023-07-16T05:44:13;17.60;;;13.73;;
7336;SDS011;54510;42.016;23.098;2023-07-16T05:46:39;21.30;;;13.75;;
7336;SDS011;54510;42.016;23.098;2023-07-16T05:49:04;18.10;;;14.10;;
7336;SDS011;54510;42.016;23.098;2023-07-16T05:51:30;19.45;;;13.10;;
7336;SDS011;54510;42.016;23.098;2023-07-16T05:53:55;17.35;;;13.80;;
7336;SDS011;54510;42.016;23.098;2023-07-16T05:56:20;22.65;;;13.88;;
7336;SDS011;54510;42.016;23.098;2023-07-16T05:58:46;15.52;;;12.50;;
7336;SDS011;54510;42.016;23.098;2023-07-16T06:01:11;17.70;;;13.23;;
7336;SDS011;54510;42.016;23.098;2023-07-16T06:03:37;22.77;;;14.13;;
7336;SDS011;54510;42.016;23.098;2023-07-16T06:06:02;15.65;;;12.38;;
7336;SDS011;54510;42.016;23.098;2023-07-16T06:08:28;19.27;;;14.00;;
7336;SDS011;54510;42.016;23.098;2023-07-16T06:10:53;20.60;;;13.18;;
7336;SDS011;54510;42.016;23.098;2023-07-16T06:13:18;17.25;;;13.05;;
7336;SDS011;54510;42.016;23.098;2023-07-16T06:15:45;17.63;;;13.68;;
7336;SDS011;54510;42.016;23.098;2023-07-16T06:18:11;18.17;;;12.10;;
7336;SDS011;54510;42.016;23.098;2023-07-16T06:20:37;19.30;;;12.30;;
7336;SDS011;54510;42.016;23.098;2023-07-16T06:23:02;15.45;;;12.35;;
7336;SDS011;54510;42.016;23.098;2023-07-16T06:25:28;19.73;;;13.77;;
7336;SDS011;54510;42.016;23.098;2023-07-16T06:27:54;16.27;;;12.73;;
7336;SDS011;54510;42.016;23.098;2023-07-16T06:30:19;22.92;;;13.77;;
7336;SDS011;54510;42.016;23.098;2023-07-16T06:32:44;21.05;;;12.63;;
7336;SDS011;54510;42.016;23.098;2023-07-16T06:35:10;17.60;;;13.23;;
7336;SDS011;54510;42.016;23.098;2023-07-16T06:37:35;20.95;;;13.10;;
7336;SDS011;54510;42.016;23.098;2023-07-16T06:40:00;21.20;;;12.73;;
7336;SDS011;54510;42.016;23.098;2023-07-16T06:42:26;17.83;;;12.48;;
7336;SDS011;54510;42.016;23.098;2023-07-16T06:44:51;18.55;;;12.10;;
7336;SDS011;54510;42.016;23.098;2023-07-16T06:47:17;19.25;;;11.75;;
7336;SDS011;54510;42.016;23.098;2023-07-16T06:49:42;23.13;;;12.23;;
7336;SDS011;54510;42.016;23.098;2023-07-16T06:52:07;16.70;;;11.23;;
7336;SDS011;54510;42.016;23.098;2023-07-16T06:54:33;22.73;;;12.25;;
7336;SDS011;54510;42.016;23.098;2023-07-16T06:56:59;20.95;;;11.30;;
7336;SDS011;54510;42.016;23.098;2023-07-16T06:59:25;22.25;;;11.25;;
7336;SDS011;54510;42.016;23.098;2023-07-16T07:01:50;16.00;;;11.13;;
7336;SDS011;54510;42.016;23.098;2023-07-16T07:04:16;21.27;;;11.65;;
7336;SDS011;54510;42.016;23.098;2023-07-16T07:06:41;18.50;;;12.07;;
7336;SDS011;54510;42.016;23.098;2023-07-16T07:09:06;20.48;;;11.68;;
7336;SDS011;54510;42.016;23.098;2023-07-16T07:11:32;14.30;;;10.95;;
7336;SDS011;54510;42.016;23.098;2023-07-16T07:13:57;16.50;;;11.02;;
7336;SDS011;54510;42.016;23.098;2023-07-16T07:16:23;14.18;;;9.55;;
7336;SDS011;54510;42.016;23.098;2023-07-16T07:18:49;13.25;;;9.82;;
7336;SDS011;54510;42.016;23.098;2023-07-16T07:21:14;12.48;;;8.02;;
7336;SDS011;54510;42.016;23.098;2023-07-16T07:23:40;12.77;;;8.98;;
7336;SDS011;54510;42.016;23.098;2023-07-16T07:26:05;14.63;;;10.02;;
7336;SDS011;54510;42.016;23.098;2023-07-16T07:28:31;17.80;;;9.10;;
7336;SDS011;54510;42.016;23.098;2023-07-16T07:30:56;13.35;;;9.02;;
7336;SDS011;54510;42.016;23.098;2023-07-16T07:33:22;12.48;;;8.93;;
7336;SDS011;54510;42.016;23.098;2023-07-16T07:35:47;15.27;;;9.48;;
7336;SDS011;54510;42.016;23.098;2023-07-16T07:38:12;12.40;;;9.05;;
7336;SDS011;54510;42.016;23.098;2023-07-16T07:40:38;18.60;;;9.50;;
7336;SDS011;54510;42.016;23.098;2023-07-16T07:43:03;15.18;;;9.00;;
7336;SDS011;54510;42.016;23.098;2023-07-16T07:45:29;17.80;;;8.68;;
7336;SDS011;54510;42.016;23.098;2023-07-16T07:47:54;12.18;;;9.27;;
7336;SDS011;54510;42.016;23.098;2023-07-16T07:50:20;15.95;;;9.38;;
7336;SDS011;54510;42.016;23.098;2023-07-16T07:52:45;17.88;;;10.43;;
7336;SDS011;54510;42.016;23.098;2023-07-16T07:55:11;20.52;;;10.40;;
7336;SDS011;54510;42.016;23.098;2023-07-16T07:57:36;13.77;;;9.40;;
7336;SDS011;54510;42.016;23.098;2023-07-16T08:00:02;16.75;;;9.82;;
7336;SDS011;54510;42.016;23.098;2023-07-16T08:02:28;13.02;;;9.70;;
7336;SDS011;54510;42.016;23.098;2023-07-16T08:04:53;15.40;;;9.38;;
7336;SDS011;54510;42.016;23.098;2023-07-16T08:07:20;13.40;;;9.60;;
7336;SDS011;54510;42.016;23.098;2023-07-16T08:09:46;12.48;;;9.13;;
7336;SDS011;54510;42.016;23.098;2023-07-16T08:12:12;13.65;;;9.93;;
7336;SDS011;54510;42.016;23.098;2023-07-16T08:14:37;14.00;;;10.20;;
7336;SDS011;54510;42.016;23.098;2023-07-16T08:17:03;13.75;;;9.25;;
7336;SDS011;54510;42.016;23.098;2023-07-16T08:19:29;16.83;;;9.27;;
7336;SDS011;54510;42.016;23.098;2023-07-16T08:21:54;12.00;;;8.27;;
7336;SDS011;54510;42.016;23.098;2023-07-16T08:24:20;12.07;;;8.75;;
7336;SDS011;54510;42.016;23.098;2023-07-16T08:26:45;16.02;;;9.20;;
7336;SDS011;54510;42.016;23.098;2023-07-16T08:29:10;14.18;;;8.70;;
7336;SDS011;54510;42.016;23.098;2023-07-16T08:31:36;17.75;;;9.10;;
7336;SDS011;54510;42.016;23.098;2023-07-16T08:34:01;14.32;;;8.82;;
7336;SDS011;54510;42.016;23.098;2023-07-16T08:36:27;15.98;;;9.60;;
7336;SDS011;54510;42.016;23.098;2023-07-16T08:38:52;15.50;;;8.35;;
7336;SDS011;54510;42.016;23.098;2023-07-16T08:41:17;15.05;;;8.98;;
7336;SDS011;54510;42.016;23.098;2023-07-16T08:43:45;15.80;;;8.23;;
7336;SDS011;54510;42.016;23.098;2023-07-16T08:46:12;15.10;;;9.38;;
7336;SDS011;54510;42.016;23.098;2023-07-16T08:48:38;16.60;;;8.55;;
7336;SDS011;54510;42.016;23.098;2023-07-16T08:51:04;15.07;;;9.57;;
7336;SDS011;54510;42.016;23.098;2023-07-16T08:53:32;14.15;;;8.75;;
7336;SDS011;54510;42.016;23.098;2023-07-16T08:55:58;18.35;;;9.32;;
7336;SDS011;54510;42.016;23.098;2023-07-16T08:58:23;15.68;;;9.10;;
7336;SDS011;54510;42.016;23.098;2023-07-16T09:00:49;11.73;;;8.77;;
7336;SDS011;54510;42.016;23.098;2023-07-16T09:03:16;12.63;;;8.38;;
7336;SDS011;54510;42.016;23.098;2023-07-16T09:05:43;14.30;;;9.27;;
7336;SDS011;54510;42.016;23.098;2023-07-16T09:08:09;14.93;;;8.95;;
7336;SDS011;54510;42.016;23.098;2023-07-16T09:10:35;19.00;;;9.27;;
7336;SDS011;54510;42.016;23.098;2023-07-16T09:13:00;14.13;;;8.27;;
7336;SDS011;54510;42.016;23.098;2023-07-16T09:15:27;11.77;;;8.48;;
7336;SDS011;54510;42.016;23.098;2023-07-16T09:17:54;14.70;;;8.93;;
7336;SDS011;54510;42.016;23.098;2023-07-16T09:20:20;15.20;;;9.77;;
7336;SDS011;54510;42.016;23.098;2023-07-16T09:22:48;10.98;;;8.25;;
7336;SDS011;54510;42.016;23.098;2023-07-16T09:25:14;12.18;;;7.82;;
7336;SDS011;54510;42.016;23.098;2023-07-16T09:27:40;14.15;;;8.82;;
7336;SDS011;54510;42.016;23.098;2023-07-16T09:30:06;17.15;;;8.85;;
7336;SDS011;54510;42.016;23.098;2023-07-16T09:32:32;12.80;;;7.40;;
7336;SDS011;54510;42.016;23.098;2023-07-16T09:35:06;12.93;;;8.43;;
7336;SDS011;54510;42.016;23.098;2023-07-16T09:37:35;14.07;;;8.63;;
7336;SDS011;54510;42.016;23.098;2023-07-16T09:40:02;16.30;;;8.75;;
7336;SDS011;54510;42.016;23.098;2023-07-16T09:42:28;16.95;;;7.95;;
7336;SDS011;54510;42.016;23.098;2023-07-16T09:44:55;12.23;;;8.20;;
7336;SDS011;54510;42.016;23.098;2023-07-16T09:47:22;12.50;;;7.88;;
7336;SDS011;54510;42.016;23.098;2023-07-16T09:49:47;12.40;;;8.30;;
7336;SDS011;54510;42.016;23.098;2023-07-16T09:52:13;12.25;;;7.47;;
7336;SDS011;54510;42.016;23.098;2023-07-16T09:54:40;13.90;;;9.60;;
7336;SDS011;54510;42.016;23.098;2023-07-16T09:57:06;17.05;;;9.20;;
7336;SDS011;54510;42.016;23.098;2023-07-16T09:59:33;14.30;;;8.80;;
7336;SDS011;54510;42.016;23.098;2023-07-16T10:01:59;12.80;;;9.25;;
7336;SDS011;54510;42.016;23.098;2023-07-16T10:04:24;14.55;;;8.40;;
7336;SDS011;54510;42.016;23.098;2023-07-16T10:06:54;13.52;;;8.77;;
7336;SDS011;54510;42.016;23.098;2023-07-16T10:09:40;11.65;;;9.15;;
7336;SDS011;54510;42.016;23.098;2023-07-16T10:12:16;13.18;;;9.02;;
7336;SDS011;54510;42.016;23.098;2023-07-16T10:14:48;14.98;;;8.65;;
7336;SDS011;54510;42.016;23.098;2023-07-16T10:17:18;10.50;;;8.32;;
7336;SDS011;54510;42.016;23.098;2023-07-16T10:19:45;14.15;;;8.77;;
7336;SDS011;54510;42.016;23.098;2023-07-16T10:22:31;12.27;;;7.95;;
7336;SDS011;54510;42.016;23.098;2023-07-16T10:25:10;16.52;;;8.38;;
7336;SDS011;54510;42.016;23.098;2023-07-16T10:27:48;14.43;;;9.48;;
7336;SDS011;54510;42.016;23.098;2023-07-16T10:30:16;11.60;;;9.13;;
7336;SDS011;54510;42.016;23.098;2023-07-16T10:32:42;16.63;;;9.38;;
7336;SDS011;54510;42.016;23.098;2023-07-16T10:35:08;17.23;;;8.95;;
7336;SDS011;54510;42.016;23.098;2023-07-16T10:37:34;13.73;;;9.45;;
7336;SDS011;54510;42.016;23.098;2023-07-16T10:40:00;15.55;;;9.20;;
7336;SDS011;54510;42.016;23.098;2023-07-16T10:42:26;13.73;;;8.85;;
7336;SDS011;54510;42.016;23.098;2023-07-16T10:44:53;11.95;;;8.18;;
7336;SDS011;54510;42.016;23.098;2023-07-16T10:47:23;12.35;;;8.38;;
7336;SDS011;54510;42.016;23.098;2023-07-16T10:49:50;14.40;;;8.20;;
7336;SDS011;54510;42.016;23.098;2023-07-16T10:52:22;12.30;;;7.88;;
7336;SDS011;54510;42.016;23.098;2023-07-16T10:54:49;12.48;;;8.32;;
7336;SDS011;54510;42.016;23.098;2023-07-16T10:57:20;13.30;;;7.60;;
7336;SDS011;54510;42.016;23.098;2023-07-16T10:59:46;17.30;;;7.78;;
7336;SDS011;54510;42.016;23.098;2023-07-16T11:02:14;10.98;;;7.15;;
7336;SDS011;54510;42.016;23.098;2023-07-16T11:04:40;11.38;;;7.20;;
7336;SDS011;54510;42.016;23.098;2023-07-16T11:07:07;12.52;;;6.82;;
7336;SDS011;54510;42.016;23.098;2023-07-16T11:09:40;9.98;;;6.82;;
7336;SDS011;54510;42.016;23.098;2023-07-16T11:12:11;10.43;;;6.80;;
7336;SDS011;54510;42.016;23.098;2023-07-16T11:14:37;12.68;;;7.57;;
7336;SDS011;54510;42.016;23.098;2023-07-16T11:17:06;11.02;;;7.32;;
7336;SDS011;54510;42.016;23.098;2023-07-16T11:19:33;10.40;;;7.00;;
7336;SDS011;54510;42.016;23.098;2023-07-16T11:22:00;12.98;;;7.38;;
7336;SDS011;54510;42.016;23.098;2023-07-16T11:24:27;13.95;;;7.18;;
7336;SDS011;54510;42.016;23.098;2023-07-16T11:26:53;10.40;;;7.10;;
7336;SDS011;54510;42.016;23.098;2023-07-16T11:29:20;11.07;;;6.30;;
7336;SDS011;54510;42.016;23.098;2023-07-16T11:31:48;9.25;;;5.63;;
7336;SDS011;54510;42.016;23.098;2023-07-16T11:34:19;8.98;;;7.25;;
7336;SDS011;54510;42.016;23.098;2023-07-16T11:36:46;9.50;;;5.80;;
7336;SDS011;54510;42.016;23.098;2023-07-16T11:39:11;11.32;;;7.20;;
7336;SDS011;54510;42.016;23.098;2023-07-16T11:41:37;8.80;;;5.90;;
7336;SDS011;54510;42.016;23.098;2023-07-16T11:44:03;11.57;;;6.65;;
7336;SDS011;54510;42.016;23.098;2023-07-16T11:46:31;12.52;;;6.65;;
7336;SDS011;54510;42.016;23.098;2023-07-16T11:48:58;6.55;;;4.88;;
7336;SDS011;54510;42.016;23.098;2023-07-16T11:51:24;10.88;;;5.75;;
7336;SDS011;54510;42.016;23.098;2023-07-16T11:53:49;9.23;;;5.95;;
7336;SDS011;54510;42.016;23.098;2023-07-16T11:56:14;10.18;;;6.22;;
7336;SDS011;54510;42.016;23.098;2023-07-16T11:58:40;9.25;;;5.60;;
7336;SDS011;54510;42.016;23.098;2023-07-16T12:01:05;9.07;;;5.10;;
7336;SDS011;54510;42.016;23.098;2023-07-16T12:03:31;11.10;;;4.93;;
7336;SDS011;54510;42.016;23.098;2023-07-16T12:05:56;9.25;;;6.07;;
7336;SDS011;54510;42.016;23.098;2023-07-16T12:08:21;9.27;;;5.53;;
7336;SDS011;54510;42.016;23.098;2023-07-16T12:10:47;8.52;;;6.05;;
7336;SDS011;54510;42.016;23.098;2023-07-16T12:13:12;9.25;;;5.78;;
7336;SDS011;54510;42.016;23.098;2023-07-16T12:15:38;10.25;;;6.00;;
7336;SDS011;54510;42.016;23.098;2023-07-16T12:18:03;11.73;;;5.95;;
7336;SDS011;54510;42.016;23.098;2023-07-16T12:20:29;9.35;;;5.78;;
7336;SDS011;54510;42.016;23.098;2023-07-16T12:22:54;9.55;;;6.22;;
7336;SDS011;54510;42.016;23.098;2023-07-16T12:25:19;7.78;;;4.97;;
7336;SDS011;54510;42.016;23.098;2023-07-16T12:27:45;11.27;;;5.90;;
7336;SDS011;54510;42.016;23.098;2023-07-16T12:30:11;6.82;;;5.30;;
7336;SDS011;54510;42.016;23.098;2023-07-16T12:32:36;8.95;;;5.65;;
7336;SDS011;54510;42.016;23.098;2023-07-16T12:35:02;12.88;;;5.65;;
7336;SDS011;54510;42.016;23.098;2023-07-16T12:37:29;11.00;;;5.60;;
7336;SDS011;54510;42.016;23.098;2023-07-16T12:39:55;9.23;;;4.80;;
7336;SDS011;54510;42.016;23.098;2023-07-16T12:42:20;6.75;;;4.63;;
7336;SDS011;54510;42.016;23.098;2023-07-16T12:44:45;5.55;;;3.80;;
7336;SDS011;54510;42.016;23.098;2023-07-16T12:47:11;9.00;;;4.00;;
7336;SDS011;54510;42.016;23.098;2023-07-16T12:49:36;6.05;;;4.38;;
7336;SDS011;54510;42.016;23.098;2023-07-16T12:52:02;7.60;;;4.22;;
7336;SDS011;54510;42.016;23.098;2023-07-16T12:54:28;6.07;;;4.28;;
7336;SDS011;54510;42.016;23.098;2023-07-16T12:56:54;11.00;;;4.72;;
7336;SDS011;54510;42.016;23.098;2023-07-16T12:59:20;5.60;;;4.68;;
7336;SDS011;54510;42.016;23.098;2023-07-16T13:01:45;11.38;;;4.70;;
7336;SDS011;54510;42.016;23.098;2023-07-16T13:04:11;5.82;;;4.78;;
7336;SDS011;54510;42.016;23.098;2023-07-16T13:06:36;6.38;;;4.35;;
7336;SDS011;54510;42.016;23.098;2023-07-16T13:09:02;8.73;;;4.65;;
7336;SDS011;54510;42.016;23.098;2023-07-16T13:11:28;8.05;;;4.60;;
7336;SDS011;54510;42.016;23.098;2023-07-16T13:13:53;8.60;;;4.63;;
7336;SDS011;54510;42.016;23.098;2023-07-16T13:16:19;8.18;;;4.47;;
7336;SDS011;54510;42.016;23.098;2023-07-16T13:18:44;8.02;;;4.68;;
7336;SDS011;54510;42.016;23.098;2023-07-16T13:21:09;6.72;;;4.38;;
7336;SDS011;54510;42.016;23.098;2023-07-16T13:23:35;11.07;;;5.30;;
7336;SDS011;54510;42.016;23.098;2023-07-16T13:26:01;8.15;;;5.00;;
7336;SDS011;54510;42.016;23.098;2023-07-16T13:28:26;8.15;;;5.30;;
7336;SDS011;54510;42.016;23.098;2023-07-16T13:30:53;9.13;;;5.20;;
7336;SDS011;54510;42.016;23.098;2023-07-16T13:33:19;7.68;;;4.95;;
7336;SDS011;54510;42.016;23.098;2023-07-16T13:35:44;13.45;;;5.03;;
7336;SDS011;54510;42.016;23.098;2023-07-16T13:38:10;6.40;;;5.18;;
7336;SDS011;54510;42.016;23.098;2023-07-16T13:40:35;9.25;;;5.45;;
7336;SDS011;54510;42.016;23.098;2023-07-16T13:43:01;8.38;;;5.25;;
7336;SDS011;54510;42.016;23.098;2023-07-16T13:45:26;8.20;;;5.20;;
7336;SDS011;54510;42.016;23.098;2023-07-16T13:47:51;8.70;;;5.47;;
7336;SDS011;54510;42.016;23.098;2023-07-16T13:50:17;7.55;;;5.68;;
7336;SDS011;54510;42.016;23.098;2023-07-16T13:52:44;9.55;;;5.60;;
7336;SDS011;54510;42.016;23.098;2023-07-16T13:55:09;7.75;;;5.97;;
7336;SDS011;54510;42.016;23.098;2023-07-16T13:57:35;7.38;;;5.63;;
7336;SDS011;54510;42.016;23.098;2023-07-16T14:00:01;9.30;;;5.72;;
7336;SDS011;54510;42.016;23.098;2023-07-16T14:02:27;12.25;;;6.40;;
7336;SDS011;54510;42.016;23.098;2023-07-16T14:04:52;10.07;;;5.47;;
7336;SDS011;54510;42.016;23.098;2023-07-16T14:07:18;10.35;;;5.88;;
7336;SDS011;54510;42.016;23.098;2023-07-16T14:09:44;9.27;;;6.32;;
7336;SDS011;54510;42.016;23.098;2023-07-16T14:12:09;9.52;;;5.55;;
7336;SDS011;54510;42.016;23.098;2023-07-16T14:14:34;9.02;;;5.78;;
7336;SDS011;54510;42.016;23.098;2023-07-16T14:17:00;10.68;;;5.95;;
7336;SDS011;54510;42.016;23.098;2023-07-16T14:19:25;9.27;;;6.00;;
7336;SDS011;54510;42.016;23.098;2023-07-16T14:21:51;10.75;;;5.38;;
7336;SDS011;54510;42.016;23.098;2023-07-16T14:24:16;11.05;;;7.28;;
7336;SDS011;54510;42.016;23.098;2023-07-16T14:26:42;10.43;;;5.63;;
7336;SDS011;54510;42.016;23.098;2023-07-16T14:29:07;11.45;;;6.65;;
7336;SDS011;54510;42.016;23.098;2023-07-16T14:31:33;9.60;;;6.07;;